sensor_id;sensor_type;location;lat;lon;timestamp;pressure;altitude;pressure_sealevel;temperature;humidity
33422;BME280;19763;55.798;37.782;2023-11-21T00:00:19;39016.44;;;-145.63;47.32
33422;BME280;19763;55.798;37.782;2023-11-21T00:02:46;39024.25;;;-145.63;47.70
33422;BME280;19763;55.798;37.782;2023-11-21T00:05:13;39026.19;;;-145.63;47.32
33422;BME280;19763;55.798;37.782;2023-11-21T00:07:43;39034.03;;;-145.63;46.82
33422;BME280;19763;55.798;37.782;2023-11-21T00:10:10;39039.88;;;-145.63;47.35
33422;BME280;19763;55.798;37.782;2023-11-21T00:12:37;39004.69;;;-145.63;47.44
33422;BME280;19763;55.798;37.782;2023-11-21T00:15:04;39047.72;;;-145.63;48.32
33422;BME280;19763;55.798;37.782;2023-11-21T00:17:39;39006.66;;;-145.63;47.81
33422;BME280;19763;55.798;37.782;2023-11-21T00:20:08;39022.28;;;-145.63;47.75
33422;BME280;19763;55.798;37.782;2023-11-21T00:22:34;39028.16;;;-145.63;47.01
33422;BME280;19763;55.798;37.782;2023-11-21T00:25:01;39008.59;;;-145.63;47.66
33422;BME280;19763;55.798;37.782;2023-11-21T00:27:31;39034.03;;;-145.63;48.08
33422;BME280;19763;55.798;37.782;2023-11-21T00:29:57;38981.22;;;-145.63;47.75
33422;BME280;19763;55.798;37.782;2023-11-21T00:32:22;39006.66;;;-145.63;47.22
33422;BME280;19763;55.798;37.782;2023-11-21T00:34:48;38994.91;;;-145.63;48.01
33422;BME280;19763;55.798;37.782;2023-11-21T00:37:14;39018.38;;;-145.63;47.20
33422;BME280;19763;55.798;37.782;2023-11-21T00:39:40;39034.03;;;-145.63;47.73
33422;BME280;19763;55.798;37.782;2023-11-21T00:42:06;39014.47;;;-145.63;47.62
33422;BME280;19763;55.798;37.782;2023-11-21T00:44:31;39008.59;;;-145.63;47.66
33422;BME280;19763;55.798;37.782;2023-11-21T00:46:59;39022.28;;;-145.63;47.47
33422;BME280;19763;55.798;37.782;2023-11-21T00:49:25;39043.81;;;-145.63;46.49
33422;BME280;19763;55.798;37.782;2023-11-21T00:51:51;39055.53;;;-145.63;46.91
33422;BME280;19763;55.798;37.782;2023-11-21T00:54:16;39018.38;;;-145.63;46.79
33422;BME280;19763;55.798;37.782;2023-11-21T00:56:43;39030.13;;;-145.63;47.01
33422;BME280;19763;55.798;37.782;2023-11-21T00:59:08;39022.28;;;-145.63;47.69
33422;BME280;19763;55.798;37.782;2023-11-21T01:01:34;39034.03;;;-145.63;46.95
33422;BME280;19763;55.798;37.782;2023-11-21T01:04:00;39039.88;;;-145.63;46.83
33422;BME280;19763;55.798;37.782;2023-11-21T01:06:26;39020.34;;;-145.63;47.19
33422;BME280;19763;55.798;37.782;2023-11-21T01:08:52;39022.28;;;-145.63;46.94
33422;BME280;19763;55.798;37.782;2023-11-21T01:11:17;39024.25;;;-145.63;47.99
33422;BME280;19763;55.798;37.782;2023-11-21T01:13:43;39032.06;;;-145.63;47.53
33422;BME280;19763;55.798;37.782;2023-11-21T01:16:10;39020.34;;;-145.63;46.99
33422;BME280;19763;55.798;37.782;2023-11-21T01:18:37;39041.84;;;-145.63;48.19
33422;BME280;19763;55.798;37.782;2023-11-21T01:21:03;39024.25;;;-145.63;47.88
33422;BME280;19763;55.798;37.782;2023-11-21T01:23:30;39037.94;;;-145.63;47.08
33422;BME280;19763;55.798;37.782;2023-11-21T01:25:56;39012.50;;;-145.63;47.17
33422;BME280;19763;55.798;37.782;2023-11-21T01:28:22;39000.78;;;-145.63;47.99
33422;BME280;19763;55.798;37.782;2023-11-21T01:30:49;39092.69;;;-145.63;47.19
33422;BME280;19763;55.798;37.782;2023-11-21T01:33:15;39037.94;;;-145.63;47.59
33422;BME280;19763;55.798;37.782;2023-11-21T01:35:41;39035.97;;;-145.63;46.72
33422;BME280;19763;55.798;37.782;2023-11-21T01:38:08;39077.06;;;-145.63;47.31
33422;BME280;19763;55.798;37.782;2023-11-21T01:40:34;39000.78;;;-145.63;48.50
33422;BME280;19763;55.798;37.782;2023-11-21T01:43:00;39037.94;;;-145.63;48.23
33422;BME280;19763;55.798;37.782;2023-11-21T01:45:29;38912.78;;;-145.63;48.11
33422;BME280;19763;55.798;37.782;2023-11-21T01:47:56;39000.78;;;-145.63;48.34
33422;BME280;19763;55.798;37.782;2023-11-21T01:50:24;39037.94;;;-145.63;47.90
33422;BME280;19763;55.798;37.782;2023-11-21T01:52:50;39030.13;;;-145.63;47.53
33422;BME280;19763;55.798;37.782;2023-11-21T01:55:17;39065.31;;;-145.63;47.96
33422;BME280;19763;55.798;37.782;2023-11-21T01:57:45;39024.25;;;-145.63;46.96
33422;BME280;19763;55.798;37.782;2023-11-21T02:00:12;39047.72;;;-145.63;46.99
33422;BME280;19763;55.798;37.782;2023-11-21T02:02:43;39024.25;;;-145.63;46.72
33422;BME280;19763;55.798;37.782;2023-11-21T02:05:10;39026.19;;;-145.63;47.36
33422;BME280;19763;55.798;37.782;2023-11-21T02:07:39;38992.97;;;-145.63;46.98
33422;BME280;19763;55.798;37.782;2023-11-21T02:10:06;39020.34;;;-145.63;47.13
33422;BME280;19763;55.798;37.782;2023-11-21T02:12:34;39026.19;;;-145.63;46.66
33422;BME280;19763;55.798;37.782;2023-11-21T02:15:05;39012.50;;;-145.63;46.88
33422;BME280;19763;55.798;37.782;2023-11-21T02:17:36;39010.56;;;-145.63;47.20
33422;BME280;19763;55.798;37.782;2023-11-21T02:20:02;38897.13;;;-145.63;46.53
33422;BME280;19763;55.798;37.782;2023-11-21T02:22:30;39020.34;;;-145.63;46.34
33422;BME280;19763;55.798;37.782;2023-11-21T02:24:58;39030.13;;;-145.63;47.23
33422;BME280;19763;55.798;37.782;2023-11-21T02:27:24;39022.28;;;-145.63;46.27
33422;BME280;19763;55.798;37.782;2023-11-21T02:29:50;39008.59;;;-145.63;46.38
33422;BME280;19763;55.798;37.782;2023-11-21T02:32:16;39018.38;;;-145.63;46.67
33422;BME280;19763;55.798;37.782;2023-11-21T02:34:48;39026.19;;;-145.63;46.08
33422;BME280;19763;55.798;37.782;2023-11-21T02:37:15;38998.81;;;-145.63;45.76
33422;BME280;19763;55.798;37.782;2023-11-21T02:39:41;39026.19;;;-145.63;46.65
33422;BME280;19763;55.798;37.782;2023-11-21T02:42:07;39008.59;;;-145.63;46.05
33422;BME280;19763;55.798;37.782;2023-11-21T02:44:32;38963.63;;;-145.63;46.92
33422;BME280;19763;55.798;37.782;2023-11-21T02:46:58;38994.91;;;-145.63;47.45
33422;BME280;19763;55.798;37.782;2023-11-21T02:49:25;38987.09;;;-145.63;47.30
33422;BME280;19763;55.798;37.782;2023-11-21T02:51:54;39090.75;;;-145.63;47.06
33422;BME280;19763;55.798;37.782;2023-11-21T02:54:22;39016.44;;;-145.63;46.86
33422;BME280;19763;55.798;37.782;2023-11-21T02:56:48;39006.66;;;-145.63;46.29
33422;BME280;19763;55.798;37.782;2023-11-21T02:59:15;38957.75;;;-145.63;47.00
33422;BME280;19763;55.798;37.782;2023-11-21T03:01:41;39012.50;;;-145.63;46.77
33422;BME280;19763;55.798;37.782;2023-11-21T03:04:06;39006.66;;;-145.63;46.52
33422;BME280;19763;55.798;37.782;2023-11-21T03:06:32;39004.69;;;-145.63;46.92
33422;BME280;19763;55.798;37.782;2023-11-21T03:08:59;39022.28;;;-145.63;46.35
33422;BME280;19763;55.798;37.782;2023-11-21T03:11:25;39035.97;;;-145.63;46.40
33422;BME280;19763;55.798;37.782;2023-11-21T03:13:51;39010.56;;;-145.63;45.92
33422;BME280;19763;55.798;37.782;2023-11-21T03:16:17;39034.03;;;-145.63;46.88
33422;BME280;19763;55.798;37.782;2023-11-21T03:18:44;39018.38;;;-145.63;46.63
33422;BME280;19763;55.798;37.782;2023-11-21T03:21:10;38963.63;;;-145.63;45.83
33422;BME280;19763;55.798;37.782;2023-11-21T03:23:36;39028.16;;;-145.63;45.81
33422;BME280;19763;55.798;37.782;2023-11-21T03:26:03;38996.88;;;-145.63;46.81
33422;BME280;19763;55.798;37.782;2023-11-21T03:28:29;38998.81;;;-145.63;46.90
33422;BME280;19763;55.798;37.782;2023-11-21T03:30:55;38840.44;;;-145.63;46.98
33422;BME280;19763;55.798;37.782;2023-11-21T03:33:22;39008.59;;;-145.63;46.83
33422;BME280;19763;55.798;37.782;2023-11-21T03:35:48;38991.00;;;-145.63;47.09
33422;BME280;19763;55.798;37.782;2023-11-21T03:38:14;38996.88;;;-145.63;47.26
33422;BME280;19763;55.798;37.782;2023-11-21T03:40:41;38996.88;;;-145.63;46.39
33422;BME280;19763;55.798;37.782;2023-11-21T03:43:07;38998.81;;;-145.63;46.75
33422;BME280;19763;55.798;37.782;2023-11-21T03:45:33;38967.53;;;-145.63;47.01
33422;BME280;19763;55.798;37.782;2023-11-21T03:47:59;39020.34;;;-145.63;46.71
33422;BME280;19763;55.798;37.782;2023-11-21T03:50:30;39000.78;;;-145.63;47.50
33422;BME280;19763;55.798;37.782;2023-11-21T03:52:57;39018.38;;;-145.63;46.54
33422;BME280;19763;55.798;37.782;2023-11-21T03:55:22;39020.34;;;-145.63;47.03
33422;BME280;19763;55.798;37.782;2023-11-21T03:57:52;39020.34;;;-145.63;47.09
33422;BME280;19763;55.798;37.782;2023-11-21T04:00:18;39006.66;;;-145.63;46.58
33422;BME280;19763;55.798;37.782;2023-11-21T04:02:45;39000.78;;;-145.63;47.36
33422;BME280;19763;55.798;37.782;2023-11-21T04:05:11;39014.47;;;-145.63;46.60
33422;BME280;19763;55.798;37.782;2023-11-21T04:07:37;39002.72;;;-145.63;46.86
33422;BME280;19763;55.798;37.782;2023-11-21T04:10:06;39010.56;;;-145.63;46.30
33422;BME280;19763;55.798;37.782;2023-11-21T04:12:35;39020.34;;;-145.63;46.42
33422;BME280;19763;55.798;37.782;2023-11-21T04:15:00;39037.94;;;-145.63;47.02
33422;BME280;19763;55.798;37.782;2023-11-21T04:17:26;39035.97;;;-145.63;46.48
33422;BME280;19763;55.798;37.782;2023-11-21T04:19:52;39039.88;;;-145.63;47.17
33422;BME280;19763;55.798;37.782;2023-11-21T04:22:18;38873.66;;;-145.63;46.35
33422;BME280;19763;55.798;37.782;2023-11-21T04:24:43;39034.03;;;-145.63;46.25
33422;BME280;19763;55.798;37.782;2023-11-21T04:27:09;38959.72;;;-145.63;46.90
33422;BME280;19763;55.798;37.782;2023-11-21T04:29:34;39024.25;;;-145.63;47.22
33422;BME280;19763;55.798;37.782;2023-11-21T04:32:01;39063.34;;;-145.63;46.63
33422;BME280;19763;55.798;37.782;2023-11-21T04:34:28;39147.44;;;-145.63;46.28
33422;BME280;19763;55.798;37.782;2023-11-21T04:36:56;39026.19;;;-145.63;46.38
33422;BME280;19763;55.798;37.782;2023-11-21T04:39:22;39055.53;;;-145.63;46.97
33422;BME280;19763;55.798;37.782;2023-11-21T04:41:48;38998.81;;;-145.63;46.71
33422;BME280;19763;55.798;37.782;2023-11-21T04:44:14;39008.59;;;-145.63;46.00
33422;BME280;19763;55.798;37.782;2023-11-21T04:46:41;39030.13;;;-145.63;46.94
33422;BME280;19763;55.798;37.782;2023-11-21T04:49:07;39024.25;;;-145.63;46.46
33422;BME280;19763;55.798;37.782;2023-11-21T04:51:33;39022.28;;;-145.63;46.75
33422;BME280;19763;55.798;37.782;2023-11-21T04:53:59;39000.78;;;-145.63;47.29
33422;BME280;19763;55.798;37.782;2023-11-21T04:56:25;39065.31;;;-145.63;47.41
33422;BME280;19763;55.798;37.782;2023-11-21T04:58:51;39008.59;;;-145.63;47.47
33422;BME280;19763;55.798;37.782;2023-11-21T05:01:16;39063.34;;;-145.63;46.82
33422;BME280;19763;55.798;37.782;2023-11-21T05:03:42;39030.13;;;-145.63;47.50
33422;BME280;19763;55.798;37.782;2023-11-21T05:06:11;38989.03;;;-145.63;47.47
33422;BME280;19763;55.798;37.782;2023-11-21T05:08:37;39063.34;;;-145.63;46.95
33422;BME280;19763;55.798;37.782;2023-11-21T05:11:03;39030.13;;;-145.63;47.23
33422;BME280;19763;55.798;37.782;2023-11-21T05:13:29;39012.50;;;-145.63;46.96
33422;BME280;19763;55.798;37.782;2023-11-21T05:15:55;39043.81;;;-145.63;47.92
33422;BME280;19763;55.798;37.782;2023-11-21T05:18:24;39020.34;;;-145.63;47.55
33422;BME280;19763;55.798;37.782;2023-11-21T05:20:52;39016.44;;;-145.63;47.48
33422;BME280;19763;55.798;37.782;2023-11-21T05:23:19;38994.91;;;-145.63;47.19
33422;BME280;19763;55.798;37.782;2023-11-21T05:25:44;39055.53;;;-145.63;48.29
33422;BME280;19763;55.798;37.782;2023-11-21T05:28:12;39030.13;;;-145.63;47.86
33422;BME280;19763;55.798;37.782;2023-11-21T05:30:37;39057.50;;;-145.63;48.01
33422;BME280;19763;55.798;37.782;2023-11-21T05:33:06;39028.16;;;-145.63;47.63
33422;BME280;19763;55.798;37.782;2023-11-21T05:35:32;38996.88;;;-145.63;48.10
33422;BME280;19763;55.798;37.782;2023-11-21T05:37:57;39022.28;;;-145.63;47.93
33422;BME280;19763;55.798;37.782;2023-11-21T05:40:23;39035.97;;;-145.63;48.48
33422;BME280;19763;55.798;37.782;2023-11-21T05:42:49;39016.44;;;-145.63;48.73
33422;BME280;19763;55.798;37.782;2023-11-21T05:45:17;39016.44;;;-145.63;48.19
33422;BME280;19763;55.798;37.782;2023-11-21T05:47:45;39012.50;;;-145.63;48.14
33422;BME280;19763;55.798;37.782;2023-11-21T05:50:15;39077.06;;;-145.63;48.75
33422;BME280;19763;55.798;37.782;2023-11-21T05:52:42;39034.03;;;-145.63;48.83
33422;BME280;19763;55.798;37.782;2023-11-21T05:55:08;39037.94;;;-145.63;48.56
33422;BME280;19763;55.798;37.782;2023-11-21T05:57:35;39024.25;;;-145.63;49.23
33422;BME280;19763;55.798;37.782;2023-11-21T06:00:06;39012.50;;;-145.63;48.35
33422;BME280;19763;55.798;37.782;2023-11-21T06:02:38;39034.03;;;-145.63;48.43
33422;BME280;19763;55.798;37.782;2023-11-21T06:05:05;39055.53;;;-145.63;48.48
33422;BME280;19763;55.798;37.782;2023-11-21T06:07:31;39010.56;;;-145.63;49.06
33422;BME280;19763;55.798;37.782;2023-11-21T06:09:56;39016.44;;;-145.63;49.15
33422;BME280;19763;55.798;37.782;2023-11-21T06:12:22;38799.34;;;-145.63;48.64
33422;BME280;19763;55.798;37.782;2023-11-21T06:14:48;38998.81;;;-145.63;49.62
33422;BME280;19763;55.798;37.782;2023-11-21T06:17:13;39016.44;;;-145.63;49.33
33422;BME280;19763;55.798;37.782;2023-11-21T06:19:39;38959.72;;;-145.63;50.08
33422;BME280;19763;55.798;37.782;2023-11-21T06:22:05;38971.44;;;-145.63;49.71
33422;BME280;19763;55.798;37.782;2023-11-21T06:24:31;38987.09;;;-145.63;49.78
33422;BME280;19763;55.798;37.782;2023-11-21T06:26:57;38985.13;;;-145.63;50.03
33422;BME280;19763;55.798;37.782;2023-11-21T06:29:24;38963.63;;;-145.63;49.31
33422;BME280;19763;55.798;37.782;2023-11-21T06:31:49;38981.22;;;-145.63;50.43
33422;BME280;19763;55.798;37.782;2023-11-21T06:34:15;38994.91;;;-145.63;48.67
33422;BME280;19763;55.798;37.782;2023-11-21T06:36:41;38953.84;;;-145.63;48.68
33422;BME280;19763;55.798;37.782;2023-11-21T06:39:07;38979.28;;;-145.63;49.56
33422;BME280;19763;55.798;37.782;2023-11-21T06:41:34;38969.50;;;-145.63;49.47
33422;BME280;19763;55.798;37.782;2023-11-21T06:44:00;38969.50;;;-145.63;49.57
33422;BME280;19763;55.798;37.782;2023-11-21T06:46:25;38955.81;;;-145.63;49.69
33422;BME280;19763;55.798;37.782;2023-11-21T06:48:51;38951.88;;;-145.63;49.02
33422;BME280;19763;55.798;37.782;2023-11-21T06:51:17;38992.97;;;-145.63;49.25
33422;BME280;19763;55.798;37.782;2023-11-21T06:53:43;38985.13;;;-145.63;50.09
33422;BME280;19763;55.798;37.782;2023-11-21T06:56:18;38985.13;;;-145.63;49.34
33422;BME280;19763;55.798;37.782;2023-11-21T06:58:45;38967.53;;;-145.63;49.76
33422;BME280;19763;55.798;37.782;2023-11-21T07:01:14;38959.72;;;-145.63;49.46
33422;BME280;19763;55.798;37.782;2023-11-21T07:03:41;38965.56;;;-145.63;49.23
33422;BME280;19763;55.798;37.782;2023-11-21T07:06:07;38963.63;;;-145.63;49.47
33422;BME280;19763;55.798;37.782;2023-11-21T07:08:33;38965.56;;;-145.63;48.80
33422;BME280;19763;55.798;37.782;2023-11-21T07:10:59;38992.97;;;-145.63;48.62
33422;BME280;19763;55.798;37.782;2023-11-21T07:13:24;38975.34;;;-145.63;49.44
33422;BME280;19763;55.798;37.782;2023-11-21T07:15:51;39008.59;;;-145.63;48.60
33422;BME280;19763;55.798;37.782;2023-11-21T07:18:17;38973.41;;;-145.63;49.08
33422;BME280;19763;55.798;37.782;2023-11-21T07:20:43;38942.13;;;-145.63;49.23
33422;BME280;19763;55.798;37.782;2023-11-21T07:23:09;39002.72;;;-145.63;49.51
33422;BME280;19763;55.798;37.782;2023-11-21T07:25:35;39000.78;;;-145.63;47.93
33422;BME280;19763;55.798;37.782;2023-11-21T07:28:01;38965.56;;;-145.63;49.21
33422;BME280;19763;55.798;37.782;2023-11-21T07:30:27;38989.03;;;-145.63;48.76
33422;BME280;19763;55.798;37.782;2023-11-21T07:32:54;38981.22;;;-145.63;48.74
33422;BME280;19763;55.798;37.782;2023-11-21T07:35:19;39002.72;;;-145.63;48.81
33422;BME280;19763;55.798;37.782;2023-11-21T07:37:45;38985.13;;;-145.63;48.96
33422;BME280;19763;55.798;37.782;2023-11-21T07:40:13;39006.66;;;-145.63;48.15
33422;BME280;19763;55.798;37.782;2023-11-21T07:42:39;38971.44;;;-145.63;48.36
33422;BME280;19763;55.798;37.782;2023-11-21T07:45:05;38944.06;;;-145.63;48.66
33422;BME280;19763;55.798;37.782;2023-11-21T07:47:32;39022.28;;;-145.63;48.48
33422;BME280;19763;55.798;37.782;2023-11-21T07:50:03;38983.19;;;-145.63;47.60
33422;BME280;19763;55.798;37.782;2023-11-21T07:52:31;39016.44;;;-145.63;47.15
33422;BME280;19763;55.798;37.782;2023-11-21T07:54:56;38979.28;;;-145.63;47.87
33422;BME280;19763;55.798;37.782;2023-11-21T07:57:22;38979.28;;;-145.63;47.11
33422;BME280;19763;55.798;37.782;2023-11-21T07:59:48;38951.88;;;-145.63;47.26
33422;BME280;19763;55.798;37.782;2023-11-21T08:02:13;38961.66;;;-145.63;47.52
33422;BME280;19763;55.798;37.782;2023-11-21T08:04:41;38971.44;;;-145.63;47.22
33422;BME280;19763;55.798;37.782;2023-11-21T08:07:07;39000.78;;;-145.63;47.40
33422;BME280;19763;55.798;37.782;2023-11-21T08:09:33;39016.44;;;-145.63;46.47
33422;BME280;19763;55.798;37.782;2023-11-21T08:12:00;38998.81;;;-145.63;46.61
33422;BME280;19763;55.798;37.782;2023-11-21T08:14:28;38967.53;;;-145.63;47.10
33422;BME280;19763;55.798;37.782;2023-11-21T08:16:53;38969.50;;;-145.63;46.22
33422;BME280;19763;55.798;37.782;2023-11-21T08:19:23;38975.34;;;-145.63;46.39
33422;BME280;19763;55.798;37.782;2023-11-21T08:21:51;38991.00;;;-145.63;45.67
33422;BME280;19763;55.798;37.782;2023-11-21T08:24:20;38994.91;;;-145.63;45.57
33422;BME280;19763;55.798;37.782;2023-11-21T08:26:46;39014.47;;;-145.63;46.07
33422;BME280;19763;55.798;37.782;2023-11-21T08:29:12;38967.53;;;-145.63;45.28
33422;BME280;19763;55.798;37.782;2023-11-21T08:31:38;38998.81;;;-145.63;46.23
33422;BME280;19763;55.798;37.782;2023-11-21T08:34:04;38947.97;;;-145.63;46.44
33422;BME280;19763;55.798;37.782;2023-11-21T08:36:30;38985.13;;;-145.63;45.60
33422;BME280;19763;55.798;37.782;2023-11-21T08:38:57;38973.41;;;-145.63;46.27
33422;BME280;19763;55.798;37.782;2023-11-21T08:41:23;39037.94;;;-145.63;45.40
33422;BME280;19763;55.798;37.782;2023-11-21T08:43:51;38969.50;;;-145.63;45.21
33422;BME280;19763;55.798;37.782;2023-11-21T08:46:19;38992.97;;;-145.63;46.04
33422;BME280;19763;55.798;37.782;2023-11-21T08:48:45;38996.88;;;-145.63;45.32
33422;BME280;19763;55.798;37.782;2023-11-21T08:51:11;38998.81;;;-145.63;45.71
33422;BME280;19763;55.798;37.782;2023-11-21T08:53:38;38973.41;;;-145.63;44.87
33422;BME280;19763;55.798;37.782;2023-11-21T08:56:04;39014.47;;;-145.63;45.58
33422;BME280;19763;55.798;37.782;2023-11-21T08:58:31;38996.88;;;-145.63;45.38
33422;BME280;19763;55.798;37.782;2023-11-21T09:00:58;39016.44;;;-145.63;45.44
33422;BME280;19763;55.798;37.782;2023-11-21T09:03:23;38785.66;;;-145.63;44.71
33422;BME280;19763;55.798;37.782;2023-11-21T09:05:50;39043.81;;;-145.63;45.17
33422;BME280;19763;55.798;37.782;2023-11-21T09:08:16;39043.81;;;-145.63;45.20
33422;BME280;19763;55.798;37.782;2023-11-21T09:10:41;39012.50;;;-145.63;46.10
33422;BME280;19763;55.798;37.782;2023-11-21T09:13:08;38981.22;;;-145.63;45.89
33422;BME280;19763;55.798;37.782;2023-11-21T09:15:34;39000.78;;;-145.63;43.70
33422;BME280;19763;55.798;37.782;2023-11-21T09:18:00;38983.19;;;-145.63;45.26
33422;BME280;19763;55.798;37.782;2023-11-21T09:20:27;38963.63;;;-145.63;45.76
33422;BME280;19763;55.798;37.782;2023-11-21T09:22:53;38985.13;;;-145.63;45.01
33422;BME280;19763;55.798;37.782;2023-11-21T09:25:20;38979.28;;;-145.63;45.45
33422;BME280;19763;55.798;37.782;2023-11-21T09:27:47;39020.34;;;-145.63;45.22
33422;BME280;19763;55.798;37.782;2023-11-21T09:30:13;39024.25;;;-145.63;45.22
33422;BME280;19763;55.798;37.782;2023-11-21T09:32:40;38973.41;;;-145.63;44.74
33422;BME280;19763;55.798;37.782;2023-11-21T09:35:06;38985.13;;;-145.63;45.32
33422;BME280;19763;55.798;37.782;2023-11-21T09:37:34;39012.50;;;-145.63;46.19
33422;BME280;19763;55.798;37.782;2023-11-21T09:40:04;39006.66;;;-145.63;45.15
33422;BME280;19763;55.798;37.782;2023-11-21T09:42:36;39041.84;;;-145.63;44.44
33422;BME280;19763;55.798;37.782;2023-11-21T09:45:18;39024.25;;;-145.63;44.79
33422;BME280;19763;55.798;37.782;2023-11-21T09:47:46;39028.16;;;-145.63;45.76
33422;BME280;19763;55.798;37.782;2023-11-21T09:50:15;38992.97;;;-145.63;45.24
33422;BME280;19763;55.798;37.782;2023-11-21T09:52:58;39086.81;;;-145.63;44.31
33422;BME280;19763;55.798;37.782;2023-11-21T09:55:34;38773.94;;;-145.63;46.48
33422;BME280;19763;55.798;37.782;2023-11-21T09:58:04;39004.69;;;-145.63;46.09
33422;BME280;19763;55.798;37.782;2023-11-21T10:00:33;38797.41;;;-145.63;46.90
33422;BME280;19763;55.798;37.782;2023-11-21T10:03:00;39010.56;;;-145.63;45.73
33422;BME280;19763;55.798;37.782;2023-11-21T10:05:25;38944.06;;;-145.63;46.50
33422;BME280;19763;55.798;37.782;2023-11-21T10:07:52;38996.88;;;-145.63;46.05
33422;BME280;19763;55.798;37.782;2023-11-21T10:10:20;38899.09;;;-145.63;45.81
33422;BME280;19763;55.798;37.782;2023-11-21T10:12:51;39051.63;;;-145.63;45.93
33422;BME280;19763;55.798;37.782;2023-11-21T10:15:24;38991.00;;;-145.63;45.83
33422;BME280;19763;55.798;37.782;2023-11-21T10:17:53;39002.72;;;-145.63;46.27
33422;BME280;19763;55.798;37.782;2023-11-21T10:20:20;39039.88;;;-145.63;46.01
33422;BME280;19763;55.798;37.782;2023-11-21T10:22:46;38977.31;;;-145.63;45.73
33422;BME280;19763;55.798;37.782;2023-11-21T10:25:13;38998.81;;;-145.63;46.76
33422;BME280;19763;55.798;37.782;2023-11-21T10:27:47;39039.88;;;-145.63;45.70
33422;BME280;19763;55.798;37.782;2023-11-21T10:30:13;39008.59;;;-145.63;45.48
33422;BME280;19763;55.798;37.782;2023-11-21T10:32:42;39043.81;;;-145.63;46.06
33422;BME280;19763;55.798;37.782;2023-11-21T10:35:08;39030.13;;;-145.63;45.66
33422;BME280;19763;55.798;37.782;2023-11-21T10:37:40;39030.13;;;-145.63;45.75
33422;BME280;19763;55.798;37.782;2023-11-21T10:40:07;39022.28;;;-145.63;45.71
33422;BME280;19763;55.798;37.782;2023-11-21T10:42:33;39032.06;;;-145.63;45.69
33422;BME280;19763;55.798;37.782;2023-11-21T10:44:59;39024.25;;;-145.63;45.69
33422;BME280;19763;55.798;37.782;2023-11-21T10:47:26;38998.81;;;-145.63;45.71
33422;BME280;19763;55.798;37.782;2023-11-21T10:49:52;38996.88;;;-145.63;46.48
33422;BME280;19763;55.798;37.782;2023-11-21T10:52:20;39000.78;;;-145.63;46.56
33422;BME280;19763;55.798;37.782;2023-11-21T10:54:46;39006.66;;;-145.63;46.07
33422;BME280;19763;55.798;37.782;2023-11-21T10:57:15;39028.16;;;-145.63;46.72
33422;BME280;19763;55.798;37.782;2023-11-21T10:59:46;39022.28;;;-145.63;46.71
33422;BME280;19763;55.798;37.782;2023-11-21T11:02:19;39010.56;;;-145.63;46.33
33422;BME280;19763;55.798;37.782;2023-11-21T11:04:48;39059.44;;;-145.63;46.50
33422;BME280;19763;55.798;37.782;2023-11-21T11:07:14;39039.88;;;-145.63;46.99
33422;BME280;19763;55.798;37.782;2023-11-21T11:09:44;39000.78;;;-145.63;45.81
33422;BME280;19763;55.798;37.782;2023-11-21T11:12:11;39047.72;;;-145.63;46.23
33422;BME280;19763;55.798;37.782;2023-11-21T11:14:41;39045.75;;;-145.63;46.10
33422;BME280;19763;55.798;37.782;2023-11-21T11:17:07;39104.44;;;-145.63;46.41
33422;BME280;19763;55.798;37.782;2023-11-21T11:19:35;39039.88;;;-145.63;46.44
33422;BME280;19763;55.798;37.782;2023-11-21T11:28:12;38975.34;;;-145.63;46.75
33422;BME280;19763;55.798;37.782;2023-11-21T11:33:48;39018.38;;;-145.63;47.19
33422;BME280;19763;55.798;37.782;2023-11-21T11:36:37;39039.88;;;-145.63;47.11
33422;BME280;19763;55.798;37.782;2023-11-21T11:39:29;39016.44;;;-145.63;47.79
33422;BME280;19763;55.798;37.782;2023-11-21T11:41:57;39008.59;;;-145.63;46.63
33422;BME280;19763;55.798;37.782;2023-11-21T11:47:19;38992.97;;;-145.63;46.79
33422;BME280;19763;55.798;37.782;2023-11-21T11:52:41;38996.88;;;-145.63;46.38
33422;BME280;19763;55.798;37.782;2023-11-21T11:55:14;39098.56;;;-145.63;47.11
33422;BME280;19763;55.798;37.782;2023-11-21T11:57:46;39016.44;;;-145.63;46.35
33422;BME280;19763;55.798;37.782;2023-11-21T12:02:49;39049.66;;;-145.63;46.94
33422;BME280;19763;55.798;37.782;2023-11-21T12:05:17;38680.06;;;-145.63;46.34
33422;BME280;19763;55.798;37.782;2023-11-21T12:07:53;39043.81;;;-145.63;46.70
33422;BME280;19763;55.798;37.782;2023-11-21T12:10:21;39071.19;;;-145.63;46.45
33422;BME280;19763;55.798;37.782;2023-11-21T12:12:54;39094.66;;;-145.63;46.90
33422;BME280;19763;55.798;37.782;2023-11-21T12:15:20;39035.97;;;-145.63;46.74
33422;BME280;19763;55.798;37.782;2023-11-21T12:17:47;39016.44;;;-145.63;46.27
33422;BME280;19763;55.798;37.782;2023-11-21T12:20:13;39035.97;;;-145.63;46.59
33422;BME280;19763;55.798;37.782;2023-11-21T12:22:55;38404.38;;;-145.63;45.86
33422;BME280;19763;55.798;37.782;2023-11-21T12:25:26;39030.13;;;-145.63;46.42
33422;BME280;19763;55.798;37.782;2023-11-21T12:27:57;39059.44;;;-145.63;46.68
33422;BME280;19763;55.798;37.782;2023-11-21T12:30:25;39073.13;;;-145.63;47.70
33422;BME280;19763;55.798;37.782;2023-11-21T12:32:55;39061.41;;;-145.63;46.72
33422;BME280;19763;55.798;37.782;2023-11-21T12:35:30;39080.97;;;-145.63;45.84
33422;BME280;19763;55.798;37.782;2023-11-21T12:38:00;39067.28;;;-145.63;46.96
33422;BME280;19763;55.798;37.782;2023-11-21T12:40:28;39055.53;;;-145.63;46.19
33422;BME280;19763;55.798;37.782;2023-11-21T12:42:56;39069.22;;;-145.63;46.11
33422;BME280;19763;55.798;37.782;2023-11-21T12:45:27;39114.22;;;-145.63;46.77
33422;BME280;19763;55.798;37.782;2023-11-21T12:48:00;39051.63;;;-145.63;46.84